Time;durP1;ratioP1;P1;durP2;ratioP2;P2;SDS_P1;SDS_P2;PMS_P1;PMS_P2;Temp;Humidity;BMP_temperature;BMP_pressure;BME280_temperature;BME280_humidity;BME280_pressure;Samples;Min_cycle;Max_cycle;Signal;HPM_P1;HPM_P2
2023/07/23 00:02:04;;;;;;;14.35;10.60;;;;;;;16.87;100.00;100879.19;5047651;28;20030;-72
2023/07/23 00:04:29;;;;;;;17.60;10.65;;;;;;;16.90;100.00;100875.38;5041425;28;20053;-72
2023/07/23 00:06:55;;;;;;;19.27;12.10;;;;;;;16.90;100.00;100870.81;5040092;28;20037;-72
2023/07/23 00:09:20;;;;;;;22.75;11.82;;;;;;;16.71;100.00;100863.53;5043395;28;20037;-72
2023/07/23 00:11:46;;;;;;;21.13;12.38;;;;;;;16.88;100.00;100862.03;5042472;28;20041;-71
2023/07/23 00:14:15;;;;;;;18.52;11.85;;;;;;;16.94;100.00;100863.34;5047480;28;20029;-72
2023/07/23 00:16:43;;;;;;;19.23;11.75;;;;;;;16.80;100.00;100857.31;5045288;28;20071;-72
2023/07/23 00:19:13;;;;;;;21.27;11.65;;;;;;;16.55;100.00;100850.53;5044613;28;20044;-72
2023/07/23 00:21:38;;;;;;;16.75;11.95;;;;;;;16.37;100.00;100843.25;5047439;28;20037;-72
2023/07/23 00:24:04;;;;;;;16.98;10.88;;;;;;;16.10;100.00;100846.50;5046420;28;20033;-72
2023/07/23 00:26:30;;;;;;;16.83;11.32;;;;;;;16.14;100.00;100848.78;5039062;28;20574;-71
2023/07/23 00:28:55;;;;;;;17.95;11.10;;;;;;;16.26;100.00;100836.94;5044767;28;20463;-72
2023/07/23 00:31:21;;;;;;;17.08;11.82;;;;;;;16.26;100.00;100836.94;5047497;28;20743;-71
2023/07/23 00:33:47;;;;;;;15.88;10.48;;;;;;;16.53;100.00;100835.53;5042122;28;20502;-72
2023/07/23 00:36:15;;;;;;;18.77;10.88;;;;;;;16.58;100.00;100827.91;5047761;28;20059;-72
2023/07/23 00:38:44;;;;;;;19.38;11.45;;;;;;;16.77;100.00;100824.47;5046591;28;20767;-72
2023/07/23 00:41:09;;;;;;;16.13;10.90;;;;;;;16.91;100.00;100812.41;5043684;28;20038;-72
2023/07/23 00:43:37;;;;;;;17.20;11.70;;;;;;;16.85;100.00;100802.19;5024968;28;20072;-71
2023/07/23 00:46:03;;;;;;;21.00;10.98;;;;;;;16.71;100.00;100804.28;5046661;28;20039;-73
2023/07/23 00:48:29;;;;;;;17.55;10.95;;;;;;;16.89;100.00;100801.78;5046916;28;20116;-72
2023/07/23 00:50:55;;;;;;;15.02;10.20;;;;;;;16.98;100.00;100792.03;5036341;28;20047;-72
2023/07/23 00:53:22;;;;;;;17.23;10.25;;;;;;;17.03;100.00;100790.63;5040974;28;20098;-72
2023/07/23 00:55:48;;;;;;;18.35;11.32;;;;;;;16.98;100.00;100781.25;5046625;28;20194;-70
2023/07/23 00:58:15;;;;;;;17.13;10.57;;;;;;;17.01;100.00;100773.72;5046082;28;20033;-71
2023/07/23 01:00:43;;;;;;;16.33;10.00;;;;;;;16.98;100.00;100779.41;5041252;28;20048;-71
2023/07/23 01:03:09;;;;;;;16.77;10.57;;;;;;;16.98;100.00;100776.72;5039681;28;20028;-71
2023/07/23 01:05:35;;;;;;;21.45;10.93;;;;;;;16.93;100.00;100775.44;5046526;28;20483;-71
2023/07/23 01:08:02;;;;;;;14.48;10.32;;;;;;;16.95;100.00;100768.91;5040446;28;20042;-74
2023/07/23 01:10:31;;;;;;;13.70;10.02;;;;;;;17.00;100.00;100760.41;5045408;28;20079;-71
2023/07/23 01:12:57;;;;;;;17.02;11.50;;;;;;;16.92;100.00;100754.84;5043042;28;20025;-71
2023/07/23 01:15:23;;;;;;;14.80;9.63;;;;;;;16.76;100.00;100750.88;5045541;28;20049;-71
2023/07/23 01:17:50;;;;;;;18.13;10.30;;;;;;;16.86;100.00;100745.50;5041434;28;20064;-71
2023/07/23 01:20:16;;;;;;;18.20;10.10;;;;;;;16.90;100.00;100744.22;5046033;28;20047;-71
2023/07/23 01:22:45;;;;;;;17.13;10.18;;;;;;;16.90;100.00;100736.16;5043839;28;20107;-71
2023/07/23 01:25:13;;;;;;;13.93;10.75;;;;;;;16.96;100.00;100734.72;5045947;28;20052;-71
2023/07/23 01:27:38;;;;;;;16.27;11.13;;;;;;;17.06;100.00;100727.50;5047006;28;20143;-70
2023/07/23 01:30:08;;;;;;;21.65;10.93;;;;;;;16.93;100.00;100733.19;5041105;28;20030;-70
2023/07/23 01:32:34;;;;;;;18.13;11.27;;;;;;;16.81;100.00;100729.75;5051252;28;20110;-71
2023/07/23 01:35:05;;;;;;;18.77;10.10;;;;;;;16.83;100.00;100718.84;5046228;28;20490;-71
2023/07/23 01:37:31;;;;;;;20.08;11.50;;;;;;;16.88;100.00;100715.75;5061983;28;20048;-71
2023/07/23 01:39:57;;;;;;;15.30;10.80;;;;;;;16.97;100.00;100704.13;5047948;28;20033;-71
2023/07/23 01:42:24;;;;;;;20.35;11.02;;;;;;;17.01;100.00;100697.44;5046749;28;20091;-71
2023/07/23 01:44:50;;;;;;;15.48;11.10;;;;;;;17.00;100.00;100701.13;5042281;28;20065;-71
2023/07/23 01:47:15;;;;;;;16.42;10.35;;;;;;;17.00;100.00;100695.75;5046185;28;20041;-70
2023/07/23 01:49:42;;;;;;;17.42;10.48;;;;;;;16.97;100.00;100694.19;5076305;27;20040;-71
2023/07/23 01:52:08;;;;;;;15.25;10.10;;;;;;;16.89;100.00;100693.19;5031589;28;20067;-71
2023/07/23 01:54:33;;;;;;;14.70;11.80;;;;;;;16.97;100.00;100694.19;5047797;28;20047;-73
2023/07/23 01:57:01;;;;;;;15.07;10.27;;;;;;;16.98;100.00;100690.50;5056762;28;20049;-71
2023/07/23 01:59:26;;;;;;;13.85;10.52;;;;;;;16.97;100.00;100682.56;5042369;28;20037;-71
2023/07/23 02:01:52;;;;;;;16.67;10.18;;;;;;;16.94;100.00;100674.75;5047459;28;20068;-71
2023/07/23 02:04:18;;;;;;;19.10;10.55;;;;;;;16.95;100.00;100673.75;5046144;28;20040;-71
2023/07/23 02:06:43;;;;;;;15.15;9.50;;;;;;;16.97;100.00;100672.66;5046243;28;20060;-71
2023/07/23 02:09:09;;;;;;;12.85;9.85;;;;;;;17.00;100.00;100676.88;5049153;28;20033;-71
2023/07/23 02:11:36;;;;;;;17.80;10.38;;;;;;;16.99;100.00;100667.09;5045734;28;20032;-71
2023/07/23 02:14:02;;;;;;;15.43;10.43;;;;;;;16.97;100.00;100658.34;5045984;28;20048;-71
2023/07/23 02:16:28;;;;;;;12.82;9.38;;;;;;;16.93;100.00;100654.22;5052626;28;20094;-71
2023/07/23 02:18:53;;;;;;;20.63;11.00;;;;;;;16.93;100.00;100655.06;5047883;28;20040;-71
2023/07/23 02:21:19;;;;;;;16.95;9.60;;;;;;;16.90;100.00;100647.25;5045315;28;20409;-73
2023/07/23 02:23:45;;;;;;;17.20;10.07;;;;;;;16.87;100.00;100638.59;5044116;28;20036;-70
2023/07/23 02:26:12;;;;;;;16.90;10.02;;;;;;;16.77;100.00;100633.25;5073400;28;20037;-71
2023/07/23 02:28:42;;;;;;;15.98;10.18;;;;;;;16.79;100.00;100634.78;5048763;28;21157;-73
2023/07/23 02:31:08;;;;;;;13.68;10.27;;;;;;;16.75;100.00;100627.13;5046600;28;20045;-71
2023/07/23 02:33:33;;;;;;;15.20;10.00;;;;;;;16.72;100.00;100619.38;5048043;28;20127;-71
2023/07/23 02:36:02;;;;;;;11.18;8.70;;;;;;;16.77;100.00;100617.09;5048410;28;20787;-73
2023/07/23 02:38:28;;;;;;;16.35;9.45;;;;;;;16.82;100.00;100612.13;5040128;28;20034;-72
2023/07/23 02:40:58;;;;;;;23.77;10.40;;;;;;;16.81;100.00;100611.25;5044360;28;20650;-72
2023/07/23 02:43:24;;;;;;;16.73;10.13;;;;;;;16.81;100.00;100600.47;5045328;28;20599;-72
2023/07/23 02:45:50;;;;;;;14.93;9.80;;;;;;;16.88;100.00;100602.63;5037808;28;20041;-73
2023/07/23 02:48:16;;;;;;;18.48;10.40;;;;;;;16.93;100.00;100592.25;5045278;28;20029;-73
2023/07/23 02:50:43;;;;;;;12.77;10.07;;;;;;;16.98;100.00;100590.84;5044260;28;20036;-71
2023/07/23 02:53:08;;;;;;;21.05;10.18;;;;;;;16.85;100.00;100584.88;5036316;28;20044;-73
2023/07/23 02:55:34;;;;;;;18.83;9.95;;;;;;;16.91;100.00;100587.00;5046735;28;20037;-73
2023/07/23 02:58:03;;;;;;;16.02;10.25;;;;;;;16.95;100.00;100577.63;5032635;28;20425;-71
2023/07/23 03:00:32;;;;;;;17.25;9.38;;;;;;;17.02;100.00;100583.31;5045273;28;20058;-73
2023/07/23 03:02:58;;;;;;;16.10;8.65;;;;;;;16.90;100.00;100571.84;5031251;28;20063;-73
2023/07/23 03:05:24;;;;;;;14.85;9.07;;;;;;;17.02;100.00;100575.22;5051783;28;21223;-72
2023/07/23 03:07:52;;;;;;;17.75;9.27;;;;;;;16.98;100.00;100563.03;5048817;28;20029;-73
2023/07/23 03:10:18;;;;;;;16.42;10.02;;;;;;;16.97;100.00;100569.44;5044765;28;20041;-73
2023/07/23 03:12:45;;;;;;;13.02;9.23;;;;;;;17.05;100.00;100564.16;5043104;28;20156;-73
2023/07/23 03:15:15;;;;;;;16.85;9.65;;;;;;;16.98;100.00;100569.28;5047932;28;20041;-73
2023/07/23 03:17:44;;;;;;;16.05;8.98;;;;;;;16.98;100.00;100561.19;5020610;28;20061;-73
2023/07/23 03:20:13;;;;;;;13.60;8.73;;;;;;;17.03;100.00;100567.00;5043092;28;20128;-73
2023/07/23 03:22:43;;;;;;;13.98;8.65;;;;;;;17.02;100.00;100564.47;5047417;28;20045;-72
2023/07/23 03:25:09;;;;;;;15.93;9.18;;;;;;;17.00;100.00;100556.50;5047689;28;20542;-73
2023/07/23 03:27:37;;;;;;;18.63;8.70;;;;;;;17.02;100.00;100557.22;5058605;28;20095;-71
2023/07/23 03:30:06;;;;;;;15.48;9.25;;;;;;;17.02;100.00;100559.06;5049750;28;20447;-72
2023/07/23 03:32:31;;;;;;;18.75;8.93;;;;;;;16.77;100.00;100558.69;5056216;28;20059;-72
2023/07/23 03:34:57;;;;;;;18.13;9.35;;;;;;;16.55;100.00;100559.81;5051421;28;20041;-72
2023/07/23 03:37:22;;;;;;;20.73;9.90;;;;;;;16.60;100.00;100548.59;5044734;28;20037;-72
2023/07/23 03:39:48;;;;;;;13.48;8.70;;;;;;;16.54;100.00;100555.41;5051998;28;20037;-72
2023/07/23 03:42:14;;;;;;;16.52;8.93;;;;;;;16.51;100.00;100560.22;5051032;28;20033;-72
2023/07/23 03:44:43;;;;;;;20.25;9.23;;;;;;;16.45;100.00;100553.56;5058941;28;20178;-73
2023/07/23 03:47:14;;;;;;;22.40;9.25;;;;;;;16.51;100.00;100544.91;5051565;28;20139;-73
2023/07/23 03:49:45;;;;;;;21.98;9.77;;;;;;;16.48;100.00;100552.44;5049205;28;20071;-72
2023/07/23 03:52:14;;;;;;;16.75;9.57;;;;;;;16.46;100.00;100549.03;5049996;28;20064;-72
2023/07/23 03:54:44;;;;;;;13.38;9.85;;;;;;;16.37;100.00;100542.69;5049117;28;20087;-73
2023/07/23 03:57:12;;;;;;;15.65;9.75;;;;;;;16.47;100.00;100546.22;5051726;28;20029;-72
2023/07/23 03:59:46;;;;;;;18.25;10.48;;;;;;;16.53;100.00;100539.41;5043043;28;20052;-73
2023/07/23 04:02:13;;;;;;;13.00;9.82;;;;;;;16.60;100.00;100537.00;5049968;28;20128;-71
2023/07/23 04:04:43;;;;;;;22.80;10.05;;;;;;;16.72;100.00;100534.03;5047971;28;20035;-73
2023/07/23 04:07:08;;;;;;;20.98;10.10;;;;;;;16.71;100.00;100534.13;5077199;28;20052;-73
2023/07/23 04:09:34;;;;;;;19.80;8.90;;;;;;;16.86;100.00;100530.03;5048039;28;20029;-72
2023/07/23 04:12:00;;;;;;;17.88;10.15;;;;;;;16.84;100.00;100518.56;5044607;28;20798;-73
2023/07/23 04:14:27;;;;;;;18.63;10.55;;;;;;;16.83;100.00;100525.78;5048292;28;20044;-73
2023/07/23 04:16:55;;;;;;;18.95;10.73;;;;;;;16.90;100.00;100520.66;5058029;28;20167;-73
2023/07/23 04:19:22;;;;;;;17.35;9.50;;;;;;;16.94;100.00;100518.53;5049595;28;20083;-73
2023/07/23 04:21:48;;;;;;;12.63;9.30;;;;;;;16.94;100.00;100518.53;5046435;28;20044;-73
2023/07/23 04:24:15;;;;;;;15.25;9.07;;;;;;;17.01;100.00;100519.63;5048533;28;20116;-73
2023/07/23 04:26:43;;;;;;;14.88;10.48;;;;;;;16.88;100.00;100514.59;5043959;28;20044;-73
2023/07/23 04:29:09;;;;;;;14.32;8.57;;;;;;;17.01;100.00;100509.69;5045543;28;20033;-73
2023/07/23 04:31:34;;;;;;;21.65;9.25;;;;;;;16.99;100.00;100510.88;5053681;28;20029;-73
2023/07/23 04:34:00;;;;;;;16.23;8.98;;;;;;;17.08;100.00;100518.06;5048480;28;20612;-73
2023/07/23 04:36:28;;;;;;;17.17;9.80;;;;;;;16.99;100.00;100511.72;5047085;28;20037;-73
2023/07/23 04:38:54;;;;;;;14.85;9.40;;;;;;;17.04;100.00;100505.88;5047102;28;20049;-73
2023/07/23 04:41:19;;;;;;;15.00;9.73;;;;;;;17.08;100.00;100504.59;5045990;28;20087;-73
2023/07/23 04:43:45;;;;;;;19.83;8.93;;;;;;;17.14;100.00;100504.00;5046751;28;20041;-72
2023/07/23 04:46:12;;;;;;;14.85;9.48;;;;;;;17.21;100.00;100502.41;5047775;28;20029;-73
2023/07/23 04:48:47;;;;;;;20.02;9.40;;;;;;;17.16;100.00;100502.00;5056378;28;20033;-72
2023/07/23 04:51:12;;;;;;;15.05;9.25;;;;;;;17.08;100.00;100499.22;5041467;28;20040;-72
2023/07/23 04:53:38;;;;;;;21.05;10.35;;;;;;;17.28;100.00;100500.81;5047392;28;20095;-73
2023/07/23 04:56:05;;;;;;;15.00;9.07;;;;;;;17.12;100.00;100503.31;5046921;28;20048;-72
2023/07/23 04:58:31;;;;;;;12.20;8.38;;;;;;;17.27;100.00;100500.94;5057042;28;20033;-71
2023/07/23 05:00:58;;;;;;;15.88;10.02;;;;;;;17.35;100.00;100493.81;5047041;28;20045;-73
2023/07/23 05:03:24;;;;;;;15.57;9.40;;;;;;;17.43;100.00;100503.03;5041527;28;20172;-73
2023/07/23 05:05:51;;;;;;;14.80;9.35;;;;;;;17.51;100.00;100495.03;5046315;28;20029;-72
2023/07/23 05:08:21;;;;;;;13.27;9.52;;;;;;;17.58;100.00;100501.53;5041782;28;20087;-72
2023/07/23 05:10:47;;;;;;;16.50;9.35;;;;;;;17.66;100.00;100503.44;5048715;28;20044;-72
2023/07/23 05:13:15;;;;;;;10.95;7.90;;;;;;;17.73;100.00;100496.50;5045979;28;20041;-72
2023/07/23 05:15:44;;;;;;;12.82;8.80;;;;;;;17.87;100.00;100498.66;5047068;28;20036;-73
2023/07/23 05:18:12;;;;;;;16.52;9.30;;;;;;;17.83;100.00;100495.44;5042120;28;20036;-72
2023/07/23 05:20:38;;;;;;;16.67;9.15;;;;;;;18.06;100.00;100494.97;5056655;28;20329;-73
2023/07/23 05:23:03;;;;;;;14.57;9.13;;;;;;;18.14;100.00;100502.31;5044438;28;20733;-72
2023/07/23 05:25:30;;;;;;;14.75;9.07;;;;;;;18.32;100.00;100492.31;5047416;28;20128;-73
2023/07/23 05:27:55;;;;;;;19.50;8.75;;;;;;;18.23;100.00;100501.38;5046376;28;20658;-72
2023/07/23 05:30:23;;;;;;;15.00;8.27;;;;;;;18.26;100.00;100493.81;5043061;28;20144;-73
2023/07/23 05:32:49;;;;;;;11.10;7.80;;;;;;;18.21;100.00;100495.28;5047154;28;20534;-73
2023/07/23 05:35:14;;;;;;;13.45;7.55;;;;;;;18.34;100.00;100501.13;5049347;28;20046;-73
2023/07/23 05:37:45;;;;;;;12.73;8.02;;;;;;;18.29;100.00;100492.66;5050368;28;20040;-73
2023/07/23 05:40:14;;;;;;;11.55;7.93;;;;;;;18.22;100.00;100492.41;5037643;28;20037;-72
2023/07/23 05:42:43;;;;;;;12.60;8.63;;;;;;;18.22;100.00;100491.56;5037895;28;20038;-72
2023/07/23 05:45:09;;;;;;;17.67;7.47;;;;;;;18.28;100.00;100489.13;5047060;28;20071;-72
2023/07/23 05:47:35;;;;;;;13.48;7.57;;;;;;;18.40;100.00;100480.75;5048581;28;20525;-72
2023/07/23 05:50:00;;;;;;;18.27;9.00;;;;;;;18.20;100.00;100501.69;5043228;28;20025;-72
2023/07/23 05:52:26;;;;;;;14.68;7.65;;;;;;;18.18;100.00;100491.06;5044870;28;20033;-73
2023/07/23 05:54:51;;;;;;;15.07;8.00;;;;;;;18.29;100.00;100495.34;5047391;28;20049;-72
2023/07/23 05:57:17;;;;;;;12.50;7.68;;;;;;;18.12;100.00;100494.34;5047226;28;20024;-72
2023/07/23 05:59:46;;;;;;;16.40;8.55;;;;;;;18.09;100.00;100497.38;5064646;28;20048;-72
2023/07/23 06:02:17;;;;;;;12.35;7.63;;;;;;;18.28;100.00;100502.63;5049180;28;20564;-73
2023/07/23 06:04:43;;;;;;;11.02;7.38;;;;;;;18.14;100.00;100495.06;5047302;28;20045;-72
2023/07/23 06:07:09;;;;;;;17.27;7.40;;;;;;;18.01;100.00;100499.97;5049653;28;20041;-71
2023/07/23 06:09:34;;;;;;;12.95;7.60;;;;;;;18.20;100.00;100498.97;5048647;28;20037;-71
2023/07/23 06:12:00;;;;;;;11.57;7.40;;;;;;;18.29;100.00;100504.31;5047850;28;20044;-72
2023/07/23 06:14:25;;;;;;;12.82;7.60;;;;;;;18.09;100.00;100500.06;5056234;28;20044;-72
2023/07/23 06:16:51;;;;;;;12.38;7.03;;;;;;;18.17;100.00;100502.81;5041000;28;20041;-72
2023/07/23 06:19:17;;;;;;;12.10;7.28;;;;;;;18.12;100.00;100502.44;5048522;28;20049;-72
2023/07/23 06:21:46;;;;;;;9.02;7.00;;;;;;;18.15;100.00;100504.84;5046423;28;20033;-71
2023/07/23 06:24:15;;;;;;;18.25;7.32;;;;;;;18.26;100.00;100506.44;5049473;28;20029;-72
2023/07/23 06:26:42;;;;;;;11.90;6.93;;;;;;;18.44;100.00;100504.59;5043824;28;20064;-72
2023/07/23 06:29:08;;;;;;;8.45;6.60;;;;;;;18.38;100.00;100502.53;5043311;28;21073;-72
2023/07/23 06:31:34;;;;;;;11.52;7.22;;;;;;;17.97;100.00;100509.38;5047201;28;20083;-72
2023/07/23 06:34:00;;;;;;;14.07;7.00;;;;;;;18.07;100.00;100505.63;5033554;28;20041;-72
2023/07/23 06:36:25;;;;;;;11.50;7.45;;;;;;;18.14;100.00;100505.00;5047045;28;20033;-72
2023/07/23 06:38:51;;;;;;;12.60;7.00;;;;;;;18.14;100.00;100511.25;5046520;28;20037;-72
2023/07/23 06:41:16;;;;;;;16.70;7.50;;;;;;;18.28;100.00;100508.00;5046259;28;20528;-72
2023/07/23 06:43:45;;;;;;;15.13;7.30;;;;;;;18.09;100.00;100506.31;5046217;28;20029;-72
2023/07/23 06:46:17;;;;;;;10.55;6.47;;;;;;;17.83;100.00;100513.47;5046522;28;20037;-72
2023/07/23 06:48:43;;;;;;;11.15;7.05;;;;;;;17.67;100.00;100521.31;5037609;28;20140;-72
2023/07/23 06:51:09;;;;;;;12.05;7.32;;;;;;;17.53;100.00;100528.09;5047045;28;20051;-72
2023/07/23 06:53:34;;;;;;;13.88;6.68;;;;;;;17.42;100.00;100534.53;5051883;28;20067;-72
2023/07/23 06:56:16;;;;;;;11.23;7.15;;;;;;;17.47;100.00;100536.75;5046767;28;20469;-72
2023/07/23 06:58:42;;;;;;;12.53;6.83;;;;;;;17.54;100.00;100535.19;5038740;28;20037;-72
2023/07/23 07:01:22;;;;;;;11.07;7.50;;;;;;;17.44;100.00;100540.59;5047293;28;20072;-72
2023/07/23 07:03:47;;;;;;;10.75;7.32;;;;;;;17.31;100.00;100535.53;5046046;28;20033;-72
2023/07/23 07:06:15;;;;;;;15.35;7.90;;;;;;;17.11;100.00;100546.53;5049128;28;20040;-72
2023/07/23 07:08:44;;;;;;;11.18;8.55;;;;;;;16.97;100.00;100547.88;5049725;28;20025;-72
2023/07/23 07:11:17;;;;;;;12.75;8.20;;;;;;;17.07;100.00;100549.56;5041104;28;20037;-72
2023/07/23 07:13:43;;;;;;;12.43;7.78;;;;;;;17.21;100.00;100553.59;5044853;28;20036;-72
2023/07/23 07:16:10;;;;;;;14.57;9.45;;;;;;;17.15;100.00;100553.34;5043833;28;20123;-72
2023/07/23 07:18:44;;;;;;;11.32;7.95;;;;;;;17.31;100.00;100551.72;5049143;28;20503;-72
2023/07/23 07:21:09;;;;;;;11.75;8.50;;;;;;;17.45;100.00;100557.63;5044571;28;20052;-72
2023/07/23 07:23:35;;;;;;;14.23;8.70;;;;;;;17.51;100.00;100548.94;5045036;28;20136;-72
2023/07/23 07:26:03;;;;;;;13.65;10.40;;;;;;;17.37;100.00;100561.09;5040247;28;20036;-72
2023/07/23 07:28:30;;;;;;;12.38;7.45;;;;;;;17.49;100.00;100559.88;5049902;28;20819;-72
2023/07/23 07:31:00;;;;;;;17.40;9.15;;;;;;;17.31;100.00;100553.56;5045444;28;20033;-73
2023/07/23 07:33:27;;;;;;;10.70;8.55;;;;;;;17.53;100.00;100563.13;5049267;28;20032;-73
2023/07/23 07:35:57;;;;;;;12.05;8.63;;;;;;;17.29;100.00;100560.97;5053061;28;20037;-72
2023/07/23 07:38:26;;;;;;;13.05;8.75;;;;;;;17.44;100.00;100570.25;5049757;28;20036;-73
2023/07/23 07:40:52;;;;;;;14.18;8.45;;;;;;;17.37;100.00;100563.78;5033413;28;20064;-73
2023/07/23 07:43:21;;;;;;;14.75;8.05;;;;;;;17.41;100.00;100567.00;5054754;28;20363;-73
2023/07/23 07:45:48;;;;;;;18.60;8.88;;;;;;;17.46;100.00;100562.03;5033102;28;20128;-73
2023/07/23 07:48:20;;;;;;;18.58;9.30;;;;;;;17.47;100.00;100563.72;5050190;28;20617;-73
2023/07/23 07:51:05;;;;;;;;;;;;;;;17.32;100.00;100569.63;5052750;28;20080;-73
2023/07/23 07:53:33;;;;;;;16.73;9.23;;;;;;;17.33;100.00;100563.22;5053331;28;19921;-73
2023/07/23 07:56:02;;;;;;;11.52;7.82;;;;;;;17.70;100.00;100565.03;5055736;28;20876;-73
2023/07/23 07:58:29;;;;;;;15.32;8.45;;;;;;;17.60;100.00;100564.22;5052810;28;20033;-73
2023/07/23 08:00:55;;;;;;;12.57;9.05;;;;;;;17.66;100.00;100565.47;5060158;28;20446;-74
2023/07/23 08:03:37;;;;;;;13.10;8.63;;;;;;;17.81;100.00;100561.31;5052698;28;20068;-73
2023/07/23 08:06:03;;;;;;;15.05;8.95;;;;;;;17.65;100.00;100564.63;5052565;28;20041;-73
2023/07/23 08:08:31;;;;;;;16.58;9.75;;;;;;;17.64;100.00;100567.47;5089777;27;20090;-73
2023/07/23 08:10:59;;;;;;;17.92;10.07;;;;;;;18.11;100.00;100552.88;5057173;28;20033;-73
2023/07/23 08:13:25;;;;;;;15.32;9.82;;;;;;;18.32;100.00;100549.91;5079163;27;20038;-73
2023/07/23 08:15:55;;;;;;;12.25;8.95;;;;;;;18.05;100.00;100556.19;5051999;28;20037;-71
2023/07/23 08:18:24;;;;;;;11.98;9.25;;;;;;;18.01;100.00;100548.53;5045310;28;20144;-72
2023/07/23 08:20:50;;;;;;;17.80;10.55;;;;;;;18.03;100.00;100551.97;5053424;28;20037;-71
2023/07/23 08:23:16;;;;;;;14.27;10.55;;;;;;;18.24;100.00;100552.50;5046583;28;20037;-71
2023/07/23 08:25:49;;;;;;;14.40;9.32;;;;;;;18.49;100.00;100556.28;5045326;28;20623;-72
2023/07/23 08:28:28;;;;;;;15.95;9.27;;;;;;;18.47;100.00;100549.31;5046528;28;20044;-72
2023/07/23 08:31:18;;;;;;;14.02;8.55;;;;;;;18.60;100.00;100563.28;5047196;28;20044;-72
2023/07/23 08:33:47;;;;;;;18.80;8.25;;;;;;;18.60;100.00;100553.31;5047020;28;20127;-71
2023/07/23 08:36:16;;;;;;;16.75;9.10;;;;;;;18.50;100.00;100540.91;5052740;28;20037;-72
2023/07/23 08:38:48;;;;;;;15.35;8.90;;;;;;;18.74;100.00;100538.44;5050802;28;20028;-72
2023/07/23 08:41:29;;;;;;;14.38;9.02;;;;;;;18.94;100.00;100538.25;5060904;28;20053;-72
2023/07/23 08:44:16;;;;;;;12.38;8.48;;;;;;;19.08;100.00;100540.38;5051978;28;20752;-72
2023/07/23 08:46:46;;;;;;;12.30;8.85;;;;;;;19.31;100.00;100544.22;5049808;28;20076;-72
2023/07/23 08:49:19;;;;;;;9.88;7.43;;;;;;;19.88;100.00;100525.53;5064323;27;20923;-72
2023/07/23 08:51:47;;;;;;;12.07;7.72;;;;;;;20.07;100.00;100534.34;5043105;28;20032;-72
2023/07/23 08:54:22;;;;;;;12.20;9.23;;;;;;;20.21;100.00;100520.16;5042635;28;20121;-73
2023/07/23 08:56:54;;;;;;;14.23;8.85;;;;;;;20.19;100.00;100524.91;5039370;28;20116;-72
2023/07/23 08:59:20;;;;;;;;;;;;;;;20.03;100.00;100519.47;5048425;28;20087;-72
2023/07/23 09:01:45;;;;;;;12.70;7.20;;;;;;;20.06;100.00;100525.41;5044758;28;19975;-72
2023/07/23 09:04:17;;;;;;;11.30;7.45;;;;;;;19.92;100.00;100526.03;5049693;28;20360;-72
2023/07/23 09:06:44;;;;;;;9.93;8.02;;;;;;;20.14;100.00;100525.41;5048762;28;20037;-72
2023/07/23 09:09:18;;;;;;;11.35;7.70;;;;;;;20.33;100.00;100518.84;5044383;28;20067;-72
2023/07/23 09:11:44;;;;;;;13.85;7.90;;;;;;;20.38;100.00;100521.91;5048986;28;20037;-72
2023/07/23 09:14:16;;;;;;;13.75;7.97;;;;;;;20.20;100.00;100526.59;5062755;28;20033;-72
2023/07/23 09:16:47;;;;;;;12.75;7.65;;;;;;;20.17;100.00;100529.63;5067434;28;20032;-71
2023/07/23 09:19:21;;;;;;;11.07;7.25;;;;;;;19.62;100.00;100530.16;5048774;28;20151;-71
2023/07/23 09:21:55;;;;;;;9.80;6.13;;;;;;;19.89;100.00;100529.09;5045414;28;20037;-71
2023/07/23 09:24:20;;;;;;;11.13;7.63;;;;;;;19.85;100.00;100530.44;5043728;28;20048;-71
2023/07/23 09:26:46;;;;;;;9.75;6.80;;;;;;;19.62;100.00;100527.47;5044981;28;20037;-71
2023/07/23 09:29:18;;;;;;;10.98;6.35;;;;;;;19.29;100.00;100527.31;5049214;28;20128;-71
2023/07/23 09:31:45;;;;;;;9.13;5.90;;;;;;;19.29;100.00;100532.72;5024647;28;20243;-71
2023/07/23 09:34:21;;;;;;;8.20;5.35;;;;;;;19.30;100.00;100538.97;5047322;28;20044;-72
2023/07/23 09:36:51;;;;;;;6.43;4.75;;;;;;;19.51;100.00;100539.41;5055439;28;20850;-71
2023/07/23 09:39:23;;;;;;;9.15;5.47;;;;;;;19.84;100.00;100539.56;5047233;28;20421;-72
2023/07/23 09:41:49;;;;;;;8.55;5.53;;;;;;;19.71;100.00;100533.75;5053157;28;20083;-71
2023/07/23 09:44:17;;;;;;;7.57;4.78;;;;;;;19.61;100.00;100533.91;5057858;28;20123;-72
2023/07/23 09:46:46;;;;;;;7.00;4.80;;;;;;;19.90;100.00;100534.31;5049891;28;20114;-71
2023/07/23 09:49:13;;;;;;;7.13;4.20;;;;;;;19.54;100.00;100538.25;5060837;28;20045;-71
2023/07/23 09:51:50;;;;;;;7.57;5.20;;;;;;;19.39;100.00;100548.81;5055413;28;20035;-71
2023/07/23 09:54:16;;;;;;;6.80;4.10;;;;;;;19.71;100.00;100541.88;5052121;28;20149;-72
2023/07/23 09:56:46;;;;;;;9.63;4.32;;;;;;;19.75;100.00;100537.84;5058779;28;20041;-71
2023/07/23 09:59:17;;;;;;;6.40;3.55;;;;;;;19.63;100.00;100540.00;5049716;28;20529;-71
2023/07/23 10:01:46;;;;;;;6.07;4.45;;;;;;;19.48;100.00;100536.16;5081145;27;20040;-71
2023/07/23 10:04:18;;;;;;;4.72;3.85;;;;;;;19.35;100.00;100548.28;5058884;28;20585;-72
2023/07/23 10:06:47;;;;;;;;;;;;;;;19.31;100.00;100551.47;5045949;28;20867;-71
2023/07/23 10:09:16;;;;;;;5.10;4.43;;;;;;;19.34;100.00;100552.00;5052454;28;19916;-72
2023/07/23 10:11:46;;;;;;;5.45;4.30;;;;;;;19.31;100.00;100560.44;5040848;28;20040;-71
2023/07/23 10:14:18;;;;;;;4.90;4.47;;;;;;;19.03;100.00;100558.94;5046890;28;20037;-71
2023/07/23 10:16:46;;;;;;;5.97;4.30;;;;;;;19.20;100.00;100559.88;5047006;28;20785;-71
2023/07/23 10:19:20;;;;;;;5.05;4.10;;;;;;;19.40;100.00;100569.44;5040845;28;20165;-71
2023/07/23 10:21:49;;;;;;;6.00;4.40;;;;;;;19.66;100.00;100555.91;5036648;28;20517;-71
2023/07/23 10:24:18;;;;;;;4.95;3.97;;;;;;;19.80;100.00;100563.38;5046370;28;20040;-72
2023/07/23 10:26:48;;;;;;;6.10;4.43;;;;;;;19.53;100.00;100563.56;5043414;28;20041;-72
2023/07/23 10:29:18;;;;;;;5.80;5.30;;;;;;;19.37;100.00;100567.88;5042848;28;20157;-72
2023/07/23 10:31:47;;;;;;;11.45;10.55;;;;;;;19.49;100.00;100568.47;5046883;28;20032;-71
2023/07/23 10:34:21;;;;;;;7.03;4.60;;;;;;;19.60;100.00;100568.22;5043681;28;20067;-72
2023/07/23 10:37:17;;;;;;;5.38;4.88;;;;;;;19.24;100.00;100578.31;5039386;28;20036;-72
2023/07/23 10:39:55;;;;;;;6.15;4.70;;;;;;;19.53;100.00;100577.97;5039644;28;20037;-72
2023/07/23 10:42:37;;;;;;;5.57;4.68;;;;;;;19.77;100.00;100565.56;5044244;28;20048;-71
2023/07/23 10:45:21;;;;;;;6.90;4.97;;;;;;;19.81;100.00;100572.34;5037856;28;20226;-72
2023/07/23 10:47:57;;;;;;;5.68;5.03;;;;;;;19.60;100.00;100572.78;5041596;28;20614;-71
2023/07/23 10:50:25;;;;;;;6.03;4.13;;;;;;;19.48;100.00;100574.91;5044677;28;20041;-71
2023/07/23 10:52:58;;;;;;;5.28;4.47;;;;;;;19.44;100.00;100569.97;5040531;28;20295;-71
2023/07/23 10:55:50;;;;;;;4.75;3.88;;;;;;;19.15;100.00;100577.41;5047481;28;20091;-72
2023/07/23 10:58:20;;;;;;;5.28;4.00;;;;;;;19.47;100.00;100580.44;5048255;28;21401;-71
2023/07/23 11:00:58;;;;;;;4.78;4.00;;;;;;;19.25;100.00;100588.13;5048153;28;20161;-72
2023/07/23 11:03:25;;;;;;;3.75;3.10;;;;;;;19.16;100.00;100580.94;5050502;28;20974;-71
2023/07/23 11:05:52;;;;;;;7.63;7.03;;;;;;;18.68;100.00;100582.31;5042644;28;20028;-71
2023/07/23 11:08:26;;;;;;;4.47;3.70;;;;;;;19.07;100.00;100581.91;5040512;28;20086;-71
2023/07/23 11:10:57;;;;;;;4.75;4.00;;;;;;;18.98;100.00;100581.03;5025624;28;20116;-71
2023/07/23 11:13:25;;;;;;;3.72;3.42;;;;;;;19.06;100.00;100583.75;5044748;28;20041;-72
2023/07/23 11:15:51;;;;;;;4.28;3.83;;;;;;;18.94;100.00;100585.03;5051246;28;20114;-71